sensor_id;sensor_type;location;lat;lon;timestamp;temperature;humidity
10062;DHT22;5070;52.382;5.270;2022-08-11T00:01:05;27.60;61.40
10062;DHT22;5070;52.382;5.270;2022-08-11T00:03:35;27.60;61.40
10062;DHT22;5070;52.382;5.270;2022-08-11T00:06:10;27.60;61.40
10062;DHT22;5070;52.382;5.270;2022-08-11T00:08:40;27.60;61.30
10062;DHT22;5070;52.382;5.270;2022-08-11T00:11:10;27.60;61.40
10062;DHT22;5070;52.382;5.270;2022-08-11T00:13:41;27.60;61.30
10062;DHT22;5070;52.382;5.270;2022-08-11T00:16:16;27.60;61.40
10062;DHT22;5070;52.382;5.270;2022-08-11T00:18:52;27.60;61.40
10062;DHT22;5070;52.382;5.270;2022-08-11T00:21:21;27.60;61.30
10062;DHT22;5070;52.382;5.270;2022-08-11T00:24:10;27.60;61.30
10062;DHT22;5070;52.382;5.270;2022-08-11T00:26:38;27.60;61.40
10062;DHT22;5070;52.382;5.270;2022-08-11T00:29:10;27.60;61.30
10062;DHT22;5070;52.382;5.270;2022-08-11T00:31:46;27.60;61.30
10062;DHT22;5070;52.382;5.270;2022-08-11T00:34:18;27.60;61.30
10062;DHT22;5070;52.382;5.270;2022-08-11T00:36:50;27.60;61.30
10062;DHT22;5070;52.382;5.270;2022-08-11T00:39:21;27.60;61.30
10062;DHT22;5070;52.382;5.270;2022-08-11T00:42:09;27.50;61.20
10062;DHT22;5070;52.382;5.270;2022-08-11T00:44:59;27.50;61.10
10062;DHT22;5070;52.382;5.270;2022-08-11T00:47:46;27.50;61.10
10062;DHT22;5070;52.382;5.270;2022-08-11T00:50:25;27.50;61.20
10062;DHT22;5070;52.382;5.270;2022-08-11T00:53:04;27.50;61.10
10062;DHT22;5070;52.382;5.270;2022-08-11T00:56:12;27.50;61.10
10062;DHT22;5070;52.382;5.270;2022-08-11T01:02:15;27.50;61.10
10062;DHT22;5070;52.382;5.270;2022-08-11T01:05:15;27.50;61.10
10062;DHT22;5070;52.382;5.270;2022-08-11T01:08:22;27.50;61.10
10062;DHT22;5070;52.382;5.270;2022-08-11T01:11:11;27.50;61.10
10062;DHT22;5070;52.382;5.270;2022-08-11T01:14:07;27.50;61.10
10062;DHT22;5070;52.382;5.270;2022-08-11T01:20:30;27.50;61.00
10062;DHT22;5070;52.382;5.270;2022-08-11T01:29:39;27.50;60.90
10062;DHT22;5070;52.382;5.270;2022-08-11T01:32:54;27.40;60.90
10062;DHT22;5070;52.382;5.270;2022-08-11T01:35:48;27.40;60.90
10062;DHT22;5070;52.382;5.270;2022-08-11T01:38:45;27.40;60.90
10062;DHT22;5070;52.382;5.270;2022-08-11T01:41:32;27.40;60.90
10062;DHT22;5070;52.382;5.270;2022-08-11T01:44:51;27.40;60.90
10062;DHT22;5070;52.382;5.270;2022-08-11T01:47:31;27.40;60.90
10062;DHT22;5070;52.382;5.270;2022-08-11T01:50:30;27.40;60.80
10062;DHT22;5070;52.382;5.270;2022-08-11T01:53:20;27.30;60.70
10062;DHT22;5070;52.382;5.270;2022-08-11T01:56:00;27.40;60.80
10062;DHT22;5070;52.382;5.270;2022-08-11T01:58:37;27.40;60.90
10062;DHT22;5070;52.382;5.270;2022-08-11T02:01:21;27.40;60.80
10062;DHT22;5070;52.382;5.270;2022-08-11T02:03:56;27.30;60.70
10062;DHT22;5070;52.382;5.270;2022-08-11T02:06:31;27.30;60.60
10062;DHT22;5070;52.382;5.270;2022-08-11T02:09:42;27.30;60.70
10062;DHT22;5070;52.382;5.270;2022-08-11T02:12:43;27.30;60.70
10062;DHT22;5070;52.382;5.270;2022-08-11T02:15:25;27.30;60.70
10062;DHT22;5070;52.382;5.270;2022-08-11T02:18:03;27.30;60.70
10062;DHT22;5070;52.382;5.270;2022-08-11T02:20:36;27.30;60.70
10062;DHT22;5070;52.382;5.270;2022-08-11T02:23:30;27.30;60.70
10062;DHT22;5070;52.382;5.270;2022-08-11T02:26:34;27.30;60.60
10062;DHT22;5070;52.382;5.270;2022-08-11T02:29:11;27.30;60.70
10062;DHT22;5070;52.382;5.270;2022-08-11T02:31:46;27.30;60.70
10062;DHT22;5070;52.382;5.270;2022-08-11T02:35:03;27.20;60.60
10062;DHT22;5070;52.382;5.270;2022-08-11T02:37:41;27.20;60.60
10062;DHT22;5070;52.382;5.270;2022-08-11T02:40:21;27.20;60.60
10062;DHT22;5070;52.382;5.270;2022-08-11T02:43:03;27.20;60.60
10062;DHT22;5070;52.382;5.270;2022-08-11T02:45:39;27.20;60.60
10062;DHT22;5070;52.382;5.270;2022-08-11T02:48:24;27.20;60.60
10062;DHT22;5070;52.382;5.270;2022-08-11T02:51:18;27.20;60.70
10062;DHT22;5070;52.382;5.270;2022-08-11T02:53:53;27.20;60.60
10062;DHT22;5070;52.382;5.270;2022-08-11T02:56:33;27.20;60.60
10062;DHT22;5070;52.382;5.270;2022-08-11T02:59:13;27.20;60.60
10062;DHT22;5070;52.382;5.270;2022-08-11T03:02:09;27.20;60.70
10062;DHT22;5070;52.382;5.270;2022-08-11T03:04:58;27.20;60.60
10062;DHT22;5070;52.382;5.270;2022-08-11T03:07:32;27.10;60.60
10062;DHT22;5070;52.382;5.270;2022-08-11T03:10:05;27.10;60.60
10062;DHT22;5070;52.382;5.270;2022-08-11T03:12:44;27.10;60.60
10062;DHT22;5070;52.382;5.270;2022-08-11T03:15:42;27.10;60.50
10062;DHT22;5070;52.382;5.270;2022-08-11T03:18:33;27.10;60.50
10062;DHT22;5070;52.382;5.270;2022-08-11T03:21:08;27.10;60.40
10062;DHT22;5070;52.382;5.270;2022-08-11T03:23:47;27.10;60.40
10062;DHT22;5070;52.382;5.270;2022-08-11T03:26:27;27.10;60.50
10062;DHT22;5070;52.382;5.270;2022-08-11T03:29:03;27.00;60.40
10062;DHT22;5070;52.382;5.270;2022-08-11T03:31:43;27.00;60.40
10062;DHT22;5070;52.382;5.270;2022-08-11T03:34:15;27.00;60.40
10062;DHT22;5070;52.382;5.270;2022-08-11T03:36:58;27.00;60.40
10062;DHT22;5070;52.382;5.270;2022-08-11T03:39:52;27.00;60.50
10062;DHT22;5070;52.382;5.270;2022-08-11T03:42:26;27.00;60.50
10062;DHT22;5070;52.382;5.270;2022-08-11T03:45:04;27.00;60.50
10062;DHT22;5070;52.382;5.270;2022-08-11T03:47:53;27.00;60.50
10062;DHT22;5070;52.382;5.270;2022-08-11T03:50:31;27.00;60.50
10062;DHT22;5070;52.382;5.270;2022-08-11T03:53:13;26.90;60.50
10062;DHT22;5070;52.382;5.270;2022-08-11T03:56:12;27.00;60.60
10062;DHT22;5070;52.382;5.270;2022-08-11T04:02:07;26.90;60.60
10062;DHT22;5070;52.382;5.270;2022-08-11T04:05:20;26.90;60.50
10062;DHT22;5070;52.382;5.270;2022-08-11T04:08:16;26.90;60.40
10062;DHT22;5070;52.382;5.270;2022-08-11T04:11:12;26.90;60.50
10062;DHT22;5070;52.382;5.270;2022-08-11T04:26:55;26.90;60.50
10062;DHT22;5070;52.382;5.270;2022-08-11T04:30:00;26.90;60.50
10062;DHT22;5070;52.382;5.270;2022-08-11T04:32:52;26.80;60.50
10062;DHT22;5070;52.382;5.270;2022-08-11T04:35:47;26.80;60.50
10062;DHT22;5070;52.382;5.270;2022-08-11T04:38:56;26.80;60.40
10062;DHT22;5070;52.382;5.270;2022-08-11T04:41:52;26.80;60.40
10062;DHT22;5070;52.382;5.270;2022-08-11T04:45:24;26.80;60.40
10062;DHT22;5070;52.382;5.270;2022-08-11T04:48:13;26.70;60.40
10062;DHT22;5070;52.382;5.270;2022-08-11T04:51:21;26.70;60.30
10062;DHT22;5070;52.382;5.270;2022-08-11T04:54:22;26.70;60.30
10062;DHT22;5070;52.382;5.270;2022-08-11T04:57:18;26.70;60.30
10062;DHT22;5070;52.382;5.270;2022-08-11T05:00:07;26.70;60.30
10062;DHT22;5070;52.382;5.270;2022-08-11T05:06:21;26.70;60.30
10062;DHT22;5070;52.382;5.270;2022-08-11T05:09:17;26.70;60.40
10062;DHT22;5070;52.382;5.270;2022-08-11T05:12:05;26.70;60.40
10062;DHT22;5070;52.382;5.270;2022-08-11T05:14:45;26.70;60.40
10062;DHT22;5070;52.382;5.270;2022-08-11T05:17:38;26.70;60.40
10062;DHT22;5070;52.382;5.270;2022-08-11T05:20:25;26.70;60.60
10062;DHT22;5070;52.382;5.270;2022-08-11T05:23:13;26.70;60.60
10062;DHT22;5070;52.382;5.270;2022-08-11T05:26:01;26.70;60.60
10062;DHT22;5070;52.382;5.270;2022-08-11T05:29:37;26.60;60.50
10062;DHT22;5070;52.382;5.270;2022-08-11T05:32:23;26.60;60.60
10062;DHT22;5070;52.382;5.270;2022-08-11T05:35:10;26.60;60.60
10062;DHT22;5070;52.382;5.270;2022-08-11T05:37:59;26.60;60.70
10062;DHT22;5070;52.382;5.270;2022-08-11T05:40:49;26.60;60.70
10062;DHT22;5070;52.382;5.270;2022-08-11T05:43:41;26.60;60.70
10062;DHT22;5070;52.382;5.270;2022-08-11T05:46:48;26.60;60.80
10062;DHT22;5070;52.382;5.270;2022-08-11T05:49:34;26.50;60.80
10062;DHT22;5070;52.382;5.270;2022-08-11T05:52:25;26.60;60.90
10062;DHT22;5070;52.382;5.270;2022-08-11T05:55:22;26.50;60.90
10062;DHT22;5070;52.382;5.270;2022-08-11T05:58:36;26.50;61.00
10062;DHT22;5070;52.382;5.270;2022-08-11T06:01:10;26.50;61.10
10062;DHT22;5070;52.382;5.270;2022-08-11T06:03:42;26.50;61.20
10062;DHT22;5070;52.382;5.270;2022-08-11T06:06:26;26.50;61.30
10062;DHT22;5070;52.382;5.270;2022-08-11T06:08:56;26.50;61.30
10062;DHT22;5070;52.382;5.270;2022-08-11T06:11:24;26.50;61.40
10062;DHT22;5070;52.382;5.270;2022-08-11T06:14:12;26.50;61.40
10062;DHT22;5070;52.382;5.270;2022-08-11T06:16:42;26.50;61.40
10062;DHT22;5070;52.382;5.270;2022-08-11T06:19:14;26.50;61.60
10062;DHT22;5070;52.382;5.270;2022-08-11T06:21:44;26.50;61.60
10062;DHT22;5070;52.382;5.270;2022-08-11T06:24:14;26.50;61.60
10062;DHT22;5070;52.382;5.270;2022-08-11T06:26:47;26.50;61.70
10062;DHT22;5070;52.382;5.270;2022-08-11T06:29:44;26.50;61.80
10062;DHT22;5070;52.382;5.270;2022-08-11T06:32:23;26.40;61.70
10062;DHT22;5070;52.382;5.270;2022-08-11T06:35:00;26.40;61.80
10062;DHT22;5070;52.382;5.270;2022-08-11T06:37:42;26.40;61.80
10062;DHT22;5070;52.382;5.270;2022-08-11T06:40:21;26.40;61.90
10062;DHT22;5070;52.382;5.270;2022-08-11T06:42:57;26.40;61.90
10062;DHT22;5070;52.382;5.270;2022-08-11T06:45:33;26.40;62.00
10062;DHT22;5070;52.382;5.270;2022-08-11T06:48:06;26.40;62.00
10062;DHT22;5070;52.382;5.270;2022-08-11T06:50:48;26.40;62.10
10062;DHT22;5070;52.382;5.270;2022-08-11T06:53:35;26.40;62.20
10062;DHT22;5070;52.382;5.270;2022-08-11T06:56:06;26.30;62.10
10062;DHT22;5070;52.382;5.270;2022-08-11T06:59:04;26.40;62.30
10062;DHT22;5070;52.382;5.270;2022-08-11T07:02:00;26.30;62.30
10062;DHT22;5070;52.382;5.270;2022-08-11T07:04:43;26.40;62.40
10062;DHT22;5070;52.382;5.270;2022-08-11T07:07:57;26.30;62.40
10062;DHT22;5070;52.382;5.270;2022-08-11T07:14:26;26.30;62.50
10062;DHT22;5070;52.382;5.270;2022-08-11T07:17:18;26.30;62.50
10062;DHT22;5070;52.382;5.270;2022-08-11T07:19:51;26.30;62.60
10062;DHT22;5070;52.382;5.270;2022-08-11T07:22:38;26.30;62.60
10062;DHT22;5070;52.382;5.270;2022-08-11T07:25:28;26.30;62.60
10062;DHT22;5070;52.382;5.270;2022-08-11T07:28:20;26.30;62.70
10062;DHT22;5070;52.382;5.270;2022-08-11T07:31:09;26.30;62.70
10062;DHT22;5070;52.382;5.270;2022-08-11T07:33:44;26.30;62.70
10062;DHT22;5070;52.382;5.270;2022-08-11T07:36:38;26.30;62.70
10062;DHT22;5070;52.382;5.270;2022-08-11T07:39:20;26.30;62.70
10062;DHT22;5070;52.382;5.270;2022-08-11T07:41:51;26.30;62.80
10062;DHT22;5070;52.382;5.270;2022-08-11T07:44:20;26.30;62.70
10062;DHT22;5070;52.382;5.270;2022-08-11T07:47:00;26.30;62.80
10062;DHT22;5070;52.382;5.270;2022-08-11T07:49:49;26.30;62.80
10062;DHT22;5070;52.382;5.270;2022-08-11T07:52:37;26.30;63.00
10062;DHT22;5070;52.382;5.270;2022-08-11T07:55:11;26.30;63.10
10062;DHT22;5070;52.382;5.270;2022-08-11T07:57:42;26.30;63.20
10062;DHT22;5070;52.382;5.270;2022-08-11T08:00:47;26.30;63.20
10062;DHT22;5070;52.382;5.270;2022-08-11T08:03:37;26.30;63.30
10062;DHT22;5070;52.382;5.270;2022-08-11T08:06:26;26.30;63.40
10062;DHT22;5070;52.382;5.270;2022-08-11T08:09:13;26.30;63.50
10062;DHT22;5070;52.382;5.270;2022-08-11T08:12:04;26.30;63.60
10062;DHT22;5070;52.382;5.270;2022-08-11T08:14:51;26.30;63.70
10062;DHT22;5070;52.382;5.270;2022-08-11T08:17:39;26.30;63.80
10062;DHT22;5070;52.382;5.270;2022-08-11T08:20:45;26.30;63.80
10062;DHT22;5070;52.382;5.270;2022-08-11T08:23:17;26.30;64.70
10062;DHT22;5070;52.382;5.270;2022-08-11T08:26:02;26.30;64.00
10062;DHT22;5070;52.382;5.270;2022-08-11T08:28:43;26.30;64.10
10062;DHT22;5070;52.382;5.270;2022-08-11T08:31:13;26.30;64.10
10062;DHT22;5070;52.382;5.270;2022-08-11T08:33:41;26.30;64.20
10062;DHT22;5070;52.382;5.270;2022-08-11T08:36:09;26.30;64.30
10062;DHT22;5070;52.382;5.270;2022-08-11T08:38:49;26.30;64.40
10062;DHT22;5070;52.382;5.270;2022-08-11T08:41:44;26.30;64.50
10062;DHT22;5070;52.382;5.270;2022-08-11T08:44:13;26.30;64.50
10062;DHT22;5070;52.382;5.270;2022-08-11T08:47:08;26.30;64.50
10062;DHT22;5070;52.382;5.270;2022-08-11T08:49:40;26.30;64.60
10062;DHT22;5070;52.382;5.270;2022-08-11T08:52:14;26.30;64.60
10062;DHT22;5070;52.382;5.270;2022-08-11T08:55:01;26.30;64.80
10062;DHT22;5070;52.382;5.270;2022-08-11T08:57:33;26.30;64.80
10062;DHT22;5070;52.382;5.270;2022-08-11T09:00:07;26.30;64.80
10062;DHT22;5070;52.382;5.270;2022-08-11T09:02:43;26.30;64.80
10062;DHT22;5070;52.382;5.270;2022-08-11T09:05:21;26.30;64.90
10062;DHT22;5070;52.382;5.270;2022-08-11T09:07:53;26.30;65.00
10062;DHT22;5070;52.382;5.270;2022-08-11T09:10:25;26.30;65.00
10062;DHT22;5070;52.382;5.270;2022-08-11T09:12:56;26.30;65.10
10062;DHT22;5070;52.382;5.270;2022-08-11T09:15:28;26.30;65.10
10062;DHT22;5070;52.382;5.270;2022-08-11T09:17:59;26.30;65.20
10062;DHT22;5070;52.382;5.270;2022-08-11T09:20:33;26.30;65.20
10062;DHT22;5070;52.382;5.270;2022-08-11T09:23:08;26.30;65.20
10062;DHT22;5070;52.382;5.270;2022-08-11T09:26:31;26.30;65.20
10062;DHT22;5070;52.382;5.270;2022-08-11T09:29:27;26.30;65.30
10062;DHT22;5070;52.382;5.270;2022-08-11T09:31:58;26.40;65.30
10062;DHT22;5070;52.382;5.270;2022-08-11T09:34:28;26.40;65.30
10062;DHT22;5070;52.382;5.270;2022-08-11T09:36:58;26.40;65.40
10062;DHT22;5070;52.382;5.270;2022-08-11T09:40:06;26.40;65.40
10062;DHT22;5070;52.382;5.270;2022-08-11T09:42:54;26.40;65.40
10062;DHT22;5070;52.382;5.270;2022-08-11T09:45:50;26.40;65.40
10062;DHT22;5070;52.382;5.270;2022-08-11T09:48:18;26.40;65.40
10062;DHT22;5070;52.382;5.270;2022-08-11T09:50:48;26.40;65.40
10062;DHT22;5070;52.382;5.270;2022-08-11T09:53:19;26.40;65.40
10062;DHT22;5070;52.382;5.270;2022-08-11T09:56:06;26.40;65.40
10062;DHT22;5070;52.382;5.270;2022-08-11T09:58:51;26.40;65.40
10062;DHT22;5070;52.382;5.270;2022-08-11T10:01:27;26.40;65.40
10062;DHT22;5070;52.382;5.270;2022-08-11T10:03:57;26.40;65.40
10062;DHT22;5070;52.382;5.270;2022-08-11T10:06:28;26.40;65.40
10062;DHT22;5070;52.382;5.270;2022-08-11T10:09:23;26.40;65.30
10062;DHT22;5070;52.382;5.270;2022-08-11T10:11:55;26.50;65.40
10062;DHT22;5070;52.382;5.270;2022-08-11T10:14:26;26.40;65.30
10062;DHT22;5070;52.382;5.270;2022-08-11T10:17:19;26.40;65.40
10062;DHT22;5070;52.382;5.270;2022-08-11T10:19:54;26.50;65.30
10062;DHT22;5070;52.382;5.270;2022-08-11T10:22:34;26.40;65.30
10062;DHT22;5070;52.382;5.270;2022-08-11T10:25:20;26.50;65.50
10062;DHT22;5070;52.382;5.270;2022-08-11T10:28:11;26.50;65.50
10062;DHT22;5070;52.382;5.270;2022-08-11T10:31:11;26.50;65.50
10062;DHT22;5070;52.382;5.270;2022-08-11T10:34:19;26.50;65.50
10062;DHT22;5070;52.382;5.270;2022-08-11T10:36:55;26.50;65.50
10062;DHT22;5070;52.382;5.270;2022-08-11T10:39:25;26.50;65.50
10062;DHT22;5070;52.382;5.270;2022-08-11T10:41:55;26.50;65.50
10062;DHT22;5070;52.382;5.270;2022-08-11T10:45:03;26.50;65.60
10062;DHT22;5070;52.382;5.270;2022-08-11T10:47:55;26.50;65.60
10062;DHT22;5070;52.382;5.270;2022-08-11T10:50:23;26.50;65.70
10062;DHT22;5070;52.382;5.270;2022-08-11T10:53:09;26.50;65.70
10062;DHT22;5070;52.382;5.270;2022-08-11T10:55:55;26.50;65.80
10062;DHT22;5070;52.382;5.270;2022-08-11T10:58:42;26.50;65.70
10062;DHT22;5070;52.382;5.270;2022-08-11T11:01:22;26.50;65.70
10062;DHT22;5070;52.382;5.270;2022-08-11T11:03:55;26.50;65.80
10062;DHT22;5070;52.382;5.270;2022-08-11T11:06:30;26.60;65.80
10062;DHT22;5070;52.382;5.270;2022-08-11T11:09:03;26.60;65.80
10062;DHT22;5070;52.382;5.270;2022-08-11T11:11:36;26.60;65.80
10062;DHT22;5070;52.382;5.270;2022-08-11T11:14:25;26.60;65.80
10062;DHT22;5070;52.382;5.270;2022-08-11T11:17:25;26.60;65.70
10062;DHT22;5070;52.382;5.270;2022-08-11T11:20:39;26.60;65.70
10062;DHT22;5070;52.382;5.270;2022-08-11T11:23:16;26.60;65.60
10062;DHT22;5070;52.382;5.270;2022-08-11T11:26:04;26.60;65.60
10062;DHT22;5070;52.382;5.270;2022-08-11T11:31:46;26.60;65.50
10062;DHT22;5070;52.382;5.270;2022-08-11T11:34:36;26.70;65.60
10062;DHT22;5070;52.382;5.270;2022-08-11T11:37:22;26.70;65.60
10062;DHT22;5070;52.382;5.270;2022-08-11T11:39:51;26.70;65.50
10062;DHT22;5070;52.382;5.270;2022-08-11T11:42:20;26.70;65.50
10062;DHT22;5070;52.382;5.270;2022-08-11T11:44:49;26.70;65.40
10062;DHT22;5070;52.382;5.270;2022-08-11T11:47:22;26.70;65.30
10062;DHT22;5070;52.382;5.270;2022-08-11T11:49:50;26.70;65.30
10062;DHT22;5070;52.382;5.270;2022-08-11T11:52:23;26.70;65.20
10062;DHT22;5070;52.382;5.270;2022-08-11T11:54:55;26.70;65.20
10062;DHT22;5070;52.382;5.270;2022-08-11T11:57:24;26.70;65.10
10062;DHT22;5070;52.382;5.270;2022-08-11T12:00:28;26.70;65.00
10062;DHT22;5070;52.382;5.270;2022-08-11T12:03:18;26.70;64.90
10062;DHT22;5070;52.382;5.270;2022-08-11T12:05:46;26.70;64.90
10062;DHT22;5070;52.382;5.270;2022-08-11T12:08:17;26.80;65.00
10062;DHT22;5070;52.382;5.270;2022-08-11T12:10:52;26.80;64.90
10062;DHT22;5070;52.382;5.270;2022-08-11T12:13:44;26.80;64.80
10062;DHT22;5070;52.382;5.270;2022-08-11T12:16:13;26.80;64.70
10062;DHT22;5070;52.382;5.270;2022-08-11T12:19:06;26.80;64.70
10062;DHT22;5070;52.382;5.270;2022-08-11T12:21:40;26.80;64.70
10062;DHT22;5070;52.382;5.270;2022-08-11T12:24:32;26.80;64.70
10062;DHT22;5070;52.382;5.270;2022-08-11T12:27:19;26.80;64.60
10062;DHT22;5070;52.382;5.270;2022-08-11T12:29:54;26.80;64.60
10062;DHT22;5070;52.382;5.270;2022-08-11T12:32:27;26.90;64.60
10062;DHT22;5070;52.382;5.270;2022-08-11T12:34:56;26.80;64.60
10062;DHT22;5070;52.382;5.270;2022-08-11T12:37:29;26.90;64.60
10062;DHT22;5070;52.382;5.270;2022-08-11T12:40:02;26.90;64.50
10062;DHT22;5070;52.382;5.270;2022-08-11T12:43:17;26.90;64.50
10062;DHT22;5070;52.382;5.270;2022-08-11T12:46:07;26.90;64.50
10062;DHT22;5070;52.382;5.270;2022-08-11T12:48:42;26.90;64.40
10062;DHT22;5070;52.382;5.270;2022-08-11T12:51:32;26.90;64.40
10062;DHT22;5070;52.382;5.270;2022-08-11T12:54:48;26.90;64.40
10062;DHT22;5070;52.382;5.270;2022-08-11T12:57:24;26.90;64.30
10062;DHT22;5070;52.382;5.270;2022-08-11T13:00:13;26.90;64.20
10062;DHT22;5070;52.382;5.270;2022-08-11T13:03:01;26.90;64.20
10062;DHT22;5070;52.382;5.270;2022-08-11T13:05:51;26.90;64.20
10062;DHT22;5070;52.382;5.270;2022-08-11T13:08:21;27.00;64.10
10062;DHT22;5070;52.382;5.270;2022-08-11T13:10:54;27.00;64.10
10062;DHT22;5070;52.382;5.270;2022-08-11T13:13:44;27.00;64.10
10062;DHT22;5070;52.382;5.270;2022-08-11T13:16:25;27.00;64.00
10062;DHT22;5070;52.382;5.270;2022-08-11T13:18:55;27.00;64.00
10062;DHT22;5070;52.382;5.270;2022-08-11T13:21:25;27.00;63.90
10062;DHT22;5070;52.382;5.270;2022-08-11T13:23:57;27.00;63.90
10062;DHT22;5070;52.382;5.270;2022-08-11T13:26:34;27.00;63.90
10062;DHT22;5070;52.382;5.270;2022-08-11T13:29:25;27.10;63.90
10062;DHT22;5070;52.382;5.270;2022-08-11T13:31:56;27.10;63.90
10062;DHT22;5070;52.382;5.270;2022-08-11T13:34:26;27.10;63.90
10062;DHT22;5070;52.382;5.270;2022-08-11T13:36:57;27.10;63.80
10062;DHT22;5070;52.382;5.270;2022-08-11T13:39:29;27.10;64.00
10062;DHT22;5070;52.382;5.270;2022-08-11T13:41:58;27.10;64.00
10062;DHT22;5070;52.382;5.270;2022-08-11T13:44:30;27.10;64.10
10062;DHT22;5070;52.382;5.270;2022-08-11T13:47:02;27.10;64.10
10062;DHT22;5070;52.382;5.270;2022-08-11T13:49:31;27.20;64.20
10062;DHT22;5070;52.382;5.270;2022-08-11T13:51:59;27.20;64.20
10062;DHT22;5070;52.382;5.270;2022-08-11T13:54:30;27.20;64.30
10062;DHT22;5070;52.382;5.270;2022-08-11T13:57:02;27.20;64.20
10062;DHT22;5070;52.382;5.270;2022-08-11T13:59:36;27.20;64.30
10062;DHT22;5070;52.382;5.270;2022-08-11T14:02:21;27.20;64.30
10062;DHT22;5070;52.382;5.270;2022-08-11T14:04:56;27.20;64.30
10062;DHT22;5070;52.382;5.270;2022-08-11T14:07:37;27.20;64.30
10062;DHT22;5070;52.382;5.270;2022-08-11T14:10:08;27.30;64.40
10062;DHT22;5070;52.382;5.270;2022-08-11T14:12:40;27.30;64.50
10062;DHT22;5070;52.382;5.270;2022-08-11T14:15:31;27.30;64.50
10062;DHT22;5070;52.382;5.270;2022-08-11T14:18:03;27.30;64.50
10062;DHT22;5070;52.382;5.270;2022-08-11T14:20:33;27.30;64.60
10062;DHT22;5070;52.382;5.270;2022-08-11T14:23:17;27.40;64.50
10062;DHT22;5070;52.382;5.270;2022-08-11T14:25:48;27.40;64.60
10062;DHT22;5070;52.382;5.270;2022-08-11T14:28:34;27.40;64.60
10062;DHT22;5070;52.382;5.270;2022-08-11T14:31:13;27.40;64.50
10062;DHT22;5070;52.382;5.270;2022-08-11T14:33:43;27.40;64.60
10062;DHT22;5070;52.382;5.270;2022-08-11T14:36:29;27.40;64.60
10062;DHT22;5070;52.382;5.270;2022-08-11T14:38:57;27.50;64.70
10062;DHT22;5070;52.382;5.270;2022-08-11T14:41:26;27.50;64.70
10062;DHT22;5070;52.382;5.270;2022-08-11T14:44:34;27.50;64.60
10062;DHT22;5070;52.382;5.270;2022-08-11T14:47:22;27.50;64.60
10062;DHT22;5070;52.382;5.270;2022-08-11T14:49:53;27.50;64.80
10062;DHT22;5070;52.382;5.270;2022-08-11T14:52:36;27.50;64.70
10062;DHT22;5070;52.382;5.270;2022-08-11T14:55:07;27.50;64.60
10062;DHT22;5070;52.382;5.270;2022-08-11T14:57:53;27.60;64.80
10062;DHT22;5070;52.382;5.270;2022-08-11T15:00:23;27.60;64.60
10062;DHT22;5070;52.382;5.270;2022-08-11T15:02:53;27.60;64.70
10062;DHT22;5070;52.382;5.270;2022-08-11T15:05:38;27.60;64.60
10062;DHT22;5070;52.382;5.270;2022-08-11T15:08:28;27.60;64.80
10062;DHT22;5070;52.382;5.270;2022-08-11T15:11:34;27.70;64.80
10062;DHT22;5070;52.382;5.270;2022-08-11T15:14:20;27.70;64.80
10062;DHT22;5070;52.382;5.270;2022-08-11T15:17:02;27.70;64.80
10062;DHT22;5070;52.382;5.270;2022-08-11T15:19:39;27.70;64.80
10062;DHT22;5070;52.382;5.270;2022-08-11T15:22:29;27.80;64.90
10062;DHT22;5070;52.382;5.270;2022-08-11T15:25:15;27.80;64.80
10062;DHT22;5070;52.382;5.270;2022-08-11T15:27:47;27.80;65.60
10062;DHT22;5070;52.382;5.270;2022-08-11T15:30:36;27.80;64.70
10062;DHT22;5070;52.382;5.270;2022-08-11T15:33:24;27.80;64.60
10062;DHT22;5070;52.382;5.270;2022-08-11T15:36:13;27.80;64.60
10062;DHT22;5070;52.382;5.270;2022-08-11T15:39:01;27.80;64.50
10062;DHT22;5070;52.382;5.270;2022-08-11T15:41:35;27.90;64.60
10062;DHT22;5070;52.382;5.270;2022-08-11T15:44:27;27.90;64.50
10062;DHT22;5070;52.382;5.270;2022-08-11T15:47:35;27.90;64.60
10062;DHT22;5070;52.382;5.270;2022-08-11T15:50:10;27.90;64.40
10062;DHT22;5070;52.382;5.270;2022-08-11T15:52:47;27.90;64.40
10062;DHT22;5070;52.382;5.270;2022-08-11T15:55:17;28.00;64.40
10062;DHT22;5070;52.382;5.270;2022-08-11T15:57:49;28.00;64.30
10062;DHT22;5070;52.382;5.270;2022-08-11T16:00:36;28.00;64.20
10062;DHT22;5070;52.382;5.270;2022-08-11T16:03:34;28.00;64.10
10062;DHT22;5070;52.382;5.270;2022-08-11T16:06:36;28.00;64.10
10062;DHT22;5070;52.382;5.270;2022-08-11T16:09:12;28.10;64.10
10062;DHT22;5070;52.382;5.270;2022-08-11T16:11:45;28.10;64.00
10062;DHT22;5070;52.382;5.270;2022-08-11T16:14:15;28.10;64.70
10062;DHT22;5070;52.382;5.270;2022-08-11T16:17:02;28.10;63.90
10062;DHT22;5070;52.382;5.270;2022-08-11T16:19:32;28.10;63.80
10062;DHT22;5070;52.382;5.270;2022-08-11T16:22:06;28.20;63.80
10062;DHT22;5070;52.382;5.270;2022-08-11T16:24:40;28.20;63.80
10062;DHT22;5070;52.382;5.270;2022-08-11T16:27:32;28.20;63.70
10062;DHT22;5070;52.382;5.270;2022-08-11T16:30:03;28.20;63.60
10062;DHT22;5070;52.382;5.270;2022-08-11T16:32:34;28.20;63.60
10062;DHT22;5070;52.382;5.270;2022-08-11T16:35:05;28.20;63.50
10062;DHT22;5070;52.382;5.270;2022-08-11T16:37:52;28.30;63.50
10062;DHT22;5070;52.382;5.270;2022-08-11T16:40:41;28.30;63.40
10062;DHT22;5070;52.382;5.270;2022-08-11T16:43:13;28.30;63.30
10062;DHT22;5070;52.382;5.270;2022-08-11T16:46:02;28.30;63.30
10062;DHT22;5070;52.382;5.270;2022-08-11T16:48:49;28.30;63.20
10062;DHT22;5070;52.382;5.270;2022-08-11T16:51:19;28.40;63.10
10062;DHT22;5070;52.382;5.270;2022-08-11T16:53:49;28.40;63.10
10062;DHT22;5070;52.382;5.270;2022-08-11T16:56:35;28.40;63.00
10062;DHT22;5070;52.382;5.270;2022-08-11T16:59:08;28.40;63.00
10062;DHT22;5070;52.382;5.270;2022-08-11T17:01:45;28.40;62.90
10062;DHT22;5070;52.382;5.270;2022-08-11T17:04:27;28.40;62.80
10062;DHT22;5070;52.382;5.270;2022-08-11T17:07:16;28.50;62.80
10062;DHT22;5070;52.382;5.270;2022-08-11T17:10:12;28.50;62.70
10062;DHT22;5070;52.382;5.270;2022-08-11T17:13:25;28.50;62.70
10062;DHT22;5070;52.382;5.270;2022-08-11T17:15:58;28.50;62.70
10062;DHT22;5070;52.382;5.270;2022-08-11T17:18:47;28.60;62.70
10062;DHT22;5070;52.382;5.270;2022-08-11T17:21:19;28.60;62.70
10062;DHT22;5070;52.382;5.270;2022-08-11T17:23:52;28.60;62.60
10062;DHT22;5070;52.382;5.270;2022-08-11T17:26:29;28.60;62.50
10062;DHT22;5070;52.382;5.270;2022-08-11T17:29:23;28.60;62.40
10062;DHT22;5070;52.382;5.270;2022-08-11T17:31:53;28.60;62.40
10062;DHT22;5070;52.382;5.270;2022-08-11T17:34:43;28.60;62.40
10062;DHT22;5070;52.382;5.270;2022-08-11T17:37:31;28.60;62.30
10062;DHT22;5070;52.382;5.270;2022-08-11T17:40:02;28.70;62.30
10062;DHT22;5070;52.382;5.270;2022-08-11T17:42:31;28.70;62.20
10062;DHT22;5070;52.382;5.270;2022-08-11T17:45:19;28.70;62.20
10062;DHT22;5070;52.382;5.270;2022-08-11T17:48:07;28.70;62.20
10062;DHT22;5070;52.382;5.270;2022-08-11T17:50:55;28.70;62.00
10062;DHT22;5070;52.382;5.270;2022-08-11T17:53:26;28.70;62.00
10062;DHT22;5070;52.382;5.270;2022-08-11T17:56:33;28.70;62.00
10062;DHT22;5070;52.382;5.270;2022-08-11T17:59:20;28.70;62.00
10062;DHT22;5070;52.382;5.270;2022-08-11T18:02:17;28.80;62.10
10062;DHT22;5070;52.382;5.270;2022-08-11T18:05:03;28.80;62.10